sensor_id;sensor_type;location;lat;lon;timestamp;pressure;altitude;pressure_sealevel;temperature;humidity
40794;BME280;26502;51.886;15.604;2023-05-13T00:04:31;101215.15;;;12.16;46.29
40794;BME280;26502;51.886;15.604;2023-05-13T00:09:38;101218.85;;;12.06;46.44
40794;BME280;26502;51.886;15.604;2023-05-13T00:14:44;101214.33;;;11.95;46.51
40794;BME280;26502;51.886;15.604;2023-05-13T00:19:50;101216.01;;;11.80;46.83
40794;BME280;26502;51.886;15.604;2023-05-13T00:24:56;101217.58;;;11.68;46.97
40794;BME280;26502;51.886;15.604;2023-05-13T00:30:03;101216.48;;;11.50;47.18
40794;BME280;26502;51.886;15.604;2023-05-13T00:35:10;101218.76;;;11.39;47.43
40794;BME280;26502;51.886;15.604;2023-05-13T00:40:20;101221.79;;;11.32;47.49
40794;BME280;26502;51.886;15.604;2023-05-13T00:45:26;101230.45;;;11.27;47.71
40794;BME280;26502;51.886;15.604;2023-05-13T00:50:33;101228.13;;;11.21;48.02
40794;BME280;26502;51.886;15.604;2023-05-13T00:55:42;101229.20;;;11.13;48.28
40794;BME280;26502;51.886;15.604;2023-05-13T01:00:57;101229.09;;;11.05;48.58
40794;BME280;26502;51.886;15.604;2023-05-13T01:06:11;101231.73;;;10.98;48.65
40794;BME280;26502;51.886;15.604;2023-05-13T01:11:21;101239.70;;;10.92;48.80
40794;BME280;26502;51.886;15.604;2023-05-13T01:16:33;101243.28;;;10.84;48.95
40794;BME280;26502;51.886;15.604;2023-05-13T01:21:40;101246.06;;;10.71;48.93
40794;BME280;26502;51.886;15.604;2023-05-13T01:26:46;101247.73;;;10.61;49.08
40794;BME280;26502;51.886;15.604;2023-05-13T01:31:55;101247.67;;;10.48;49.33
40794;BME280;26502;51.886;15.604;2023-05-13T01:37:02;101250.54;;;10.40;49.48
40794;BME280;26502;51.886;15.604;2023-05-13T01:42:09;101250.45;;;10.26;49.53
40794;BME280;26502;51.886;15.604;2023-05-13T01:47:15;101249.34;;;10.11;49.84
40794;BME280;26502;51.886;15.604;2023-05-13T01:52:21;101250.60;;;10.03;50.02
40794;BME280;26502;51.886;15.604;2023-05-13T01:57:27;101250.53;;;9.96;50.24
40794;BME280;26502;51.886;15.604;2023-05-13T02:02:35;101257.90;;;9.92;50.38
40794;BME280;26502;51.886;15.604;2023-05-13T02:07:41;101252.98;;;9.90;50.53
40794;BME280;26502;51.886;15.604;2023-05-13T02:12:47;101253.77;;;9.76;50.61
40794;BME280;26502;51.886;15.604;2023-05-13T02:17:53;101253.83;;;9.65;50.76
40794;BME280;26502;51.886;15.604;2023-05-13T02:22:59;101253.00;;;9.62;50.95
40794;BME280;26502;51.886;15.604;2023-05-13T02:28:05;101254.09;;;9.60;51.08
40794;BME280;26502;51.886;15.604;2023-05-13T02:33:12;101258.25;;;9.56;51.10
40794;BME280;26502;51.886;15.604;2023-05-13T02:38:19;101254.12;;;9.50;51.30
40794;BME280;26502;51.886;15.604;2023-05-13T02:43:25;101253.97;;;9.48;51.42
40794;BME280;26502;51.886;15.604;2023-05-13T02:48:33;101261.22;;;9.40;51.54
40794;BME280;26502;51.886;15.604;2023-05-13T02:53:39;101262.17;;;9.36;51.68
40794;BME280;26502;51.886;15.604;2023-05-13T02:58:46;101261.84;;;9.35;51.77
40794;BME280;26502;51.886;15.604;2023-05-13T03:03:52;101263.80;;;9.34;51.79
40794;BME280;26502;51.886;15.604;2023-05-13T03:08:58;101262.80;;;9.30;51.95
40794;BME280;26502;51.886;15.604;2023-05-13T03:14:04;101269.85;;;9.22;52.05
40794;BME280;26502;51.886;15.604;2023-05-13T03:19:10;101271.16;;;9.18;52.32
40794;BME280;26502;51.886;15.604;2023-05-13T03:24:18;101267.38;;;9.12;52.31
40794;BME280;26502;51.886;15.604;2023-05-13T03:29:25;101273.77;;;9.00;52.37
40794;BME280;26502;51.886;15.604;2023-05-13T03:34:31;101271.10;;;8.91;52.71
40794;BME280;26502;51.886;15.604;2023-05-13T03:39:40;101277.41;;;8.83;52.83
40794;BME280;26502;51.886;15.604;2023-05-13T03:44:46;101275.42;;;8.74;52.80
40794;BME280;26502;51.886;15.604;2023-05-13T03:49:52;101281.33;;;8.70;53.05
40794;BME280;26502;51.886;15.604;2023-05-13T03:54:58;101279.52;;;8.72;53.28
40794;BME280;26502;51.886;15.604;2023-05-13T04:00:07;101288.48;;;8.77;53.43
40794;BME280;26502;51.886;15.604;2023-05-13T04:05:19;101291.77;;;8.83;53.63
40794;BME280;26502;51.886;15.604;2023-05-13T04:10:25;101292.25;;;8.86;53.70
40794;BME280;26502;51.886;15.604;2023-05-13T04:15:31;101293.25;;;8.89;53.90
40794;BME280;26502;51.886;15.604;2023-05-13T04:20:39;101294.55;;;8.97;54.15
40794;BME280;26502;51.886;15.604;2023-05-13T04:25:50;101292.80;;;9.06;54.24
40794;BME280;26502;51.886;15.604;2023-05-13T04:30:56;101292.23;;;9.20;54.43
40794;BME280;26502;51.886;15.604;2023-05-13T04:36:03;101291.66;;;9.32;54.47
40794;BME280;26502;51.886;15.604;2023-05-13T04:41:09;101297.63;;;9.46;54.44
40794;BME280;26502;51.886;15.604;2023-05-13T04:46:20;101304.79;;;9.62;54.30
40794;BME280;26502;51.886;15.604;2023-05-13T04:51:28;101301.57;;;9.82;54.18
40794;BME280;26502;51.886;15.604;2023-05-13T04:56:34;101303.13;;;10.03;54.05
40794;BME280;26502;51.886;15.604;2023-05-13T05:01:40;101307.69;;;10.31;53.90
40794;BME280;26502;51.886;15.604;2023-05-13T05:06:47;101307.23;;;10.61;53.61
40794;BME280;26502;51.886;15.604;2023-05-13T05:11:54;101308.64;;;10.85;53.40
40794;BME280;26502;51.886;15.604;2023-05-13T05:17:03;101315.70;;;11.16;53.29
40794;BME280;26502;51.886;15.604;2023-05-13T05:22:09;101314.45;;;11.52;52.73
40794;BME280;26502;51.886;15.604;2023-05-13T05:27:17;101319.30;;;11.84;52.47
40794;BME280;26502;51.886;15.604;2023-05-13T05:32:23;101323.03;;;12.11;52.07
40794;BME280;26502;51.886;15.604;2023-05-13T05:37:30;101329.65;;;12.40;51.72
40794;BME280;26502;51.886;15.604;2023-05-13T05:42:36;101338.25;;;12.62;51.26
40794;BME280;26502;51.886;15.604;2023-05-13T05:47:42;101339.29;;;12.86;51.16
40794;BME280;26502;51.886;15.604;2023-05-13T05:52:49;101339.30;;;13.20;50.86
40794;BME280;26502;51.886;15.604;2023-05-13T05:57:55;101343.23;;;13.42;50.34
40794;BME280;26502;51.886;15.604;2023-05-13T06:03:02;101338.81;;;13.67;50.06
40794;BME280;26502;51.886;15.604;2023-05-13T06:08:10;101341.18;;;13.96;50.07
40794;BME280;26502;51.886;15.604;2023-05-13T06:13:16;101336.41;;;14.10;49.46
40794;BME280;26502;51.886;15.604;2023-05-13T06:18:24;101328.30;;;14.26;49.06
40794;BME280;26502;51.886;15.604;2023-05-13T06:23:31;101328.42;;;14.56;48.88
40794;BME280;26502;51.886;15.604;2023-05-13T06:28:38;101327.29;;;14.72;48.31
40794;BME280;26502;51.886;15.604;2023-05-13T06:33:44;101322.90;;;14.92;48.08
40794;BME280;26502;51.886;15.604;2023-05-13T06:38:50;101320.12;;;15.30;47.74
40794;BME280;26502;51.886;15.604;2023-05-13T06:43:56;101317.71;;;15.40;47.20
40794;BME280;26502;51.886;15.604;2023-05-13T06:49:06;101318.81;;;15.52;46.91
40794;BME280;26502;51.886;15.604;2023-05-13T06:54:12;101317.89;;;15.74;46.76
40794;BME280;26502;51.886;15.604;2023-05-13T06:59:19;101315.34;;;15.92;46.48
40794;BME280;26502;51.886;15.604;2023-05-13T07:04:26;101317.08;;;16.21;46.23
40794;BME280;26502;51.886;15.604;2023-05-13T07:09:35;101316.86;;;16.52;45.46
40794;BME280;26502;51.886;15.604;2023-05-13T07:14:41;101315.31;;;16.59;44.90
40794;BME280;26502;51.886;15.604;2023-05-13T07:19:48;101307.55;;;16.79;44.49
40794;BME280;26502;51.886;15.604;2023-05-13T07:24:54;101308.30;;;17.12;44.09
40794;BME280;26502;51.886;15.604;2023-05-13T07:30:01;101309.25;;;17.32;43.51
40794;BME280;26502;51.886;15.604;2023-05-13T07:35:08;101295.42;;;17.60;43.23
40794;BME280;26502;51.886;15.604;2023-05-13T07:40:14;101289.78;;;17.79;42.24
40794;BME280;26502;51.886;15.604;2023-05-13T07:45:21;101286.47;;;17.87;41.93
40794;BME280;26502;51.886;15.604;2023-05-13T07:50:27;101283.07;;;18.31;41.41
40794;BME280;26502;51.886;15.604;2023-05-13T07:55:33;101281.77;;;18.54;40.29
40794;BME280;26502;51.886;15.604;2023-05-13T08:00:40;101269.09;;;18.52;39.51
40794;BME280;26502;51.886;15.604;2023-05-13T08:05:47;101271.29;;;18.71;38.82
40794;BME280;26502;51.886;15.604;2023-05-13T08:10:53;101266.00;;;18.78;38.22
40794;BME280;26502;51.886;15.604;2023-05-13T08:16:01;101263.77;;;19.11;37.98
40794;BME280;26502;51.886;15.604;2023-05-13T08:21:08;101256.68;;;19.24;37.18
40794;BME280;26502;51.886;15.604;2023-05-13T08:26:14;101250.64;;;19.35;36.12
40794;BME280;26502;51.886;15.604;2023-05-13T08:31:20;101254.11;;;19.26;35.57
40794;BME280;26502;51.886;15.604;2023-05-13T08:36:27;101255.77;;;19.52;35.58
40794;BME280;26502;51.886;15.604;2023-05-13T08:41:34;101258.33;;;19.66;35.01
40794;BME280;26502;51.886;15.604;2023-05-13T08:46:42;101260.63;;;19.93;35.36
40794;BME280;26502;51.886;15.604;2023-05-13T08:51:49;101260.12;;;20.27;34.70
40794;BME280;26502;51.886;15.604;2023-05-13T08:56:55;101261.03;;;20.24;34.22
40794;BME280;26502;51.886;15.604;2023-05-13T09:02:02;101255.05;;;20.25;34.02
40794;BME280;26502;51.886;15.604;2023-05-13T09:07:09;101256.56;;;20.54;33.89
40794;BME280;26502;51.886;15.604;2023-05-13T09:12:44;101246.94;;;20.64;33.47
40794;BME280;26502;51.886;15.604;2023-05-13T09:17:53;101248.19;;;20.75;33.14
40794;BME280;26502;51.886;15.604;2023-05-13T09:23:00;101251.76;;;20.92;33.04
40794;BME280;26502;51.886;15.604;2023-05-13T09:28:07;101251.63;;;21.05;32.39
40794;BME280;26502;51.886;15.604;2023-05-13T09:33:15;101250.69;;;20.78;31.92
40794;BME280;26502;51.886;15.604;2023-05-13T09:38:26;101252.66;;;20.87;32.34
40794;BME280;26502;51.886;15.604;2023-05-13T09:43:34;101245.79;;;21.14;32.17
40794;BME280;26502;51.886;15.604;2023-05-13T09:48:43;101245.45;;;21.30;32.10
40794;BME280;26502;51.886;15.604;2023-05-13T09:53:50;101247.04;;;21.19;31.38
40794;BME280;26502;51.886;15.604;2023-05-13T09:58:55;101246.61;;;21.07;31.64
40794;BME280;26502;51.886;15.604;2023-05-13T10:04:01;101251.12;;;20.86;31.64
40794;BME280;26502;51.886;15.604;2023-05-13T10:09:10;101245.06;;;20.98;31.95
40794;BME280;26502;51.886;15.604;2023-05-13T10:14:16;101250.23;;;21.12;32.07
40794;BME280;26502;51.886;15.604;2023-05-13T10:19:22;101243.37;;;21.39;32.22
40794;BME280;26502;51.886;15.604;2023-05-13T10:24:29;101244.44;;;21.84;32.10
40794;BME280;26502;51.886;15.604;2023-05-13T10:29:37;101244.44;;;22.06;32.24
40794;BME280;26502;51.886;15.604;2023-05-13T10:34:43;101248.20;;;22.27;32.20
40794;BME280;26502;51.886;15.604;2023-05-13T10:40:11;101253.79;;;22.20;32.06
40794;BME280;26502;51.886;15.604;2023-05-13T10:45:25;101249.73;;;22.49;32.13
40794;BME280;26502;51.886;15.604;2023-05-13T10:50:34;101246.40;;;22.45;32.05
40794;BME280;26502;51.886;15.604;2023-05-13T10:55:45;101244.79;;;22.76;32.21
40794;BME280;26502;51.886;15.604;2023-05-13T11:00:51;101251.20;;;22.58;32.27
40794;BME280;26502;51.886;15.604;2023-05-13T11:06:12;101253.97;;;22.72;32.07
40794;BME280;26502;51.886;15.604;2023-05-13T11:11:31;101251.45;;;23.11;32.17
40794;BME280;26502;51.886;15.604;2023-05-13T11:16:37;101259.71;;;23.33;31.42
40794;BME280;26502;51.886;15.604;2023-05-13T11:21:48;101268.85;;;22.98;31.26
40794;BME280;26502;51.886;15.604;2023-05-13T11:26:55;101255.44;;;22.94;31.03
40794;BME280;26502;51.886;15.604;2023-05-13T11:32:03;101261.55;;;23.19;31.49
40794;BME280;26502;51.886;15.604;2023-05-13T11:37:09;101257.79;;;23.54;31.10
40794;BME280;26502;51.886;15.604;2023-05-13T11:42:15;101255.03;;;23.40;30.58
40794;BME280;26502;51.886;15.604;2023-05-13T11:47:26;101254.31;;;23.47;30.69
40794;BME280;26502;51.886;15.604;2023-05-13T11:52:32;101257.16;;;23.52;30.61
40794;BME280;26502;51.886;15.604;2023-05-13T11:57:38;101257.14;;;23.27;30.82
40794;BME280;26502;51.886;15.604;2023-05-13T12:02:45;101252.85;;;23.75;30.96
40794;BME280;26502;51.886;15.604;2023-05-13T12:07:53;101260.27;;;23.28;30.47
40794;BME280;26502;51.886;15.604;2023-05-13T12:13:01;101265.64;;;22.69;31.16
40794;BME280;26502;51.886;15.604;2023-05-13T12:18:07;101271.06;;;22.61;30.92
40794;BME280;26502;51.886;15.604;2023-05-13T12:23:13;101274.02;;;22.36;31.17
40794;BME280;26502;51.886;15.604;2023-05-13T12:28:20;101273.31;;;22.10;31.29
40794;BME280;26502;51.886;15.604;2023-05-13T12:33:28;101271.25;;;21.77;31.65
40794;BME280;26502;51.886;15.604;2023-05-13T12:38:34;101263.29;;;21.78;32.02
40794;BME280;26502;51.886;15.604;2023-05-13T12:43:41;101255.19;;;22.56;31.95
40794;BME280;26502;51.886;15.604;2023-05-13T12:48:46;101261.48;;;22.26;31.60
40794;BME280;26502;51.886;15.604;2023-05-13T12:53:53;101261.80;;;22.09;31.76
40794;BME280;26502;51.886;15.604;2023-05-13T12:58:59;101260.94;;;21.88;31.78
40794;BME280;26502;51.886;15.604;2023-05-13T13:04:05;101265.89;;;21.74;32.24
40794;BME280;26502;51.886;15.604;2023-05-13T13:09:11;101289.09;;;21.31;32.86
40794;BME280;26502;51.886;15.604;2023-05-13T13:14:17;101290.64;;;20.63;35.45
40794;BME280;26502;51.886;15.604;2023-05-13T13:19:23;101281.48;;;19.79;38.84
40794;BME280;26502;51.886;15.604;2023-05-13T13:24:29;101279.39;;;19.33;39.36
40794;BME280;26502;51.886;15.604;2023-05-13T13:29:35;101280.80;;;19.12;41.83
40794;BME280;26502;51.886;15.604;2023-05-13T13:34:41;101274.35;;;19.06;43.42
40794;BME280;26502;51.886;15.604;2023-05-13T13:39:47;101268.27;;;19.71;44.56
40794;BME280;26502;51.886;15.604;2023-05-13T13:44:53;101262.61;;;20.94;42.95
40794;BME280;26502;51.886;15.604;2023-05-13T13:49:59;101253.92;;;21.74;40.94
40794;BME280;26502;51.886;15.604;2023-05-13T13:55:07;101250.05;;;22.56;39.07
40794;BME280;26502;51.886;15.604;2023-05-13T14:00:16;101250.19;;;22.89;36.77
40794;BME280;26502;51.886;15.604;2023-05-13T14:05:22;101249.15;;;22.81;35.12
40794;BME280;26502;51.886;15.604;2023-05-13T14:10:28;101235.48;;;23.37;33.62
40794;BME280;26502;51.886;15.604;2023-05-13T14:15:34;101240.14;;;23.91;32.85
40794;BME280;26502;51.886;15.604;2023-05-13T14:20:42;101240.19;;;24.16;31.14
40794;BME280;26502;51.886;15.604;2023-05-13T14:25:50;101239.42;;;24.27;30.84
40794;BME280;26502;51.886;15.604;2023-05-13T14:30:56;101245.92;;;24.43;29.71
40794;BME280;26502;51.886;15.604;2023-05-13T14:36:03;101239.05;;;23.82;28.98
40794;BME280;26502;51.886;15.604;2023-05-13T14:41:10;101233.40;;;22.98;28.92
40794;BME280;26502;51.886;15.604;2023-05-13T14:46:23;101234.61;;;23.25;28.95
40794;BME280;26502;51.886;15.604;2023-05-13T14:51:28;101234.38;;;24.06;28.82
40794;BME280;26502;51.886;15.604;2023-05-13T14:56:35;101237.98;;;24.45;27.94
40794;BME280;26502;51.886;15.604;2023-05-13T15:01:41;101241.48;;;24.47;27.66
40794;BME280;26502;51.886;15.604;2023-05-13T15:06:47;101238.58;;;24.54;27.46
40794;BME280;26502;51.886;15.604;2023-05-13T15:11:54;101240.08;;;24.28;26.80
40794;BME280;26502;51.886;15.604;2023-05-13T15:17:00;101239.68;;;24.17;27.07
40794;BME280;26502;51.886;15.604;2023-05-13T15:22:06;101235.56;;;24.13;26.64
40794;BME280;26502;51.886;15.604;2023-05-13T15:27:12;101230.55;;;24.09;26.79
40794;BME280;26502;51.886;15.604;2023-05-13T15:32:19;101226.47;;;24.19;26.45
40794;BME280;26502;51.886;15.604;2023-05-13T15:37:24;101227.73;;;23.78;26.41
40794;BME280;26502;51.886;15.604;2023-05-13T15:42:31;101226.83;;;23.48;26.46
40794;BME280;26502;51.886;15.604;2023-05-13T15:47:37;101220.28;;;23.18;26.36
40794;BME280;26502;51.886;15.604;2023-05-13T15:52:43;101212.68;;;23.01;26.43
40794;BME280;26502;51.886;15.604;2023-05-13T15:57:49;101207.63;;;23.27;26.45
40794;BME280;26502;51.886;15.604;2023-05-13T16:02:55;101204.65;;;23.33;26.63
40794;BME280;26502;51.886;15.604;2023-05-13T16:08:01;101201.95;;;23.26;26.62
40794;BME280;26502;51.886;15.604;2023-05-13T16:13:07;101200.57;;;22.98;26.40
40794;BME280;26502;51.886;15.604;2023-05-13T16:18:13;101198.35;;;22.65;26.38
40794;BME280;26502;51.886;15.604;2023-05-13T16:23:19;101197.13;;;22.84;26.60
40794;BME280;26502;51.886;15.604;2023-05-13T16:28:26;101195.70;;;22.81;26.82
40794;BME280;26502;51.886;15.604;2023-05-13T16:33:32;101194.53;;;22.58;26.68
40794;BME280;26502;51.886;15.604;2023-05-13T16:38:39;101190.16;;;22.31;26.99
40794;BME280;26502;51.886;15.604;2023-05-13T16:43:46;101193.02;;;22.10;27.05
40794;BME280;26502;51.886;15.604;2023-05-13T16:48:52;101189.94;;;22.07;27.24
40794;BME280;26502;51.886;15.604;2023-05-13T16:53:58;101189.91;;;22.03;27.32
40794;BME280;26502;51.886;15.604;2023-05-13T16:59:06;101193.30;;;21.93;27.55
40794;BME280;26502;51.886;15.604;2023-05-13T17:04:13;101193.23;;;21.77;27.79
40794;BME280;26502;51.886;15.604;2023-05-13T17:09:18;101197.12;;;21.36;27.81
40794;BME280;26502;51.886;15.604;2023-05-13T17:14:25;101197.35;;;21.14;28.20
40794;BME280;26502;51.886;15.604;2023-05-13T17:19:31;101200.38;;;20.91;28.40
40794;BME280;26502;51.886;15.604;2023-05-13T17:24:38;101200.89;;;20.81;28.54
40794;BME280;26502;51.886;15.604;2023-05-13T17:29:44;101208.30;;;20.67;28.95
40794;BME280;26502;51.886;15.604;2023-05-13T17:34:50;101208.33;;;20.55;29.60
40794;BME280;26502;51.886;15.604;2023-05-13T17:39:56;101211.05;;;20.44;29.85
40794;BME280;26502;51.886;15.604;2023-05-13T17:45:05;101207.09;;;20.38;29.88
40794;BME280;26502;51.886;15.604;2023-05-13T17:50:12;101206.08;;;20.23;30.29
40794;BME280;26502;51.886;15.604;2023-05-13T17:55:18;101214.04;;;20.20;30.47
40794;BME280;26502;51.886;15.604;2023-05-13T18:00:25;101209.79;;;20.11;30.61
40794;BME280;26502;51.886;15.604;2023-05-13T18:05:31;101211.46;;;19.90;30.79
40794;BME280;26502;51.886;15.604;2023-05-13T18:10:37;101207.45;;;19.87;31.02
40794;BME280;26502;51.886;15.604;2023-05-13T18:15:43;101207.12;;;19.81;31.62
40794;BME280;26502;51.886;15.604;2023-05-13T18:20:49;101211.52;;;19.62;31.87
40794;BME280;26502;51.886;15.604;2023-05-13T18:25:56;101216.79;;;19.44;32.23
40794;BME280;26502;51.886;15.604;2023-05-13T18:31:02;101216.73;;;19.27;32.83
40794;BME280;26502;51.886;15.604;2023-05-13T18:36:11;101217.80;;;19.12;33.30
40794;BME280;26502;51.886;15.604;2023-05-13T18:41:17;101220.78;;;19.01;33.95
40794;BME280;26502;51.886;15.604;2023-05-13T18:46:25;101226.45;;;18.88;34.19
40794;BME280;26502;51.886;15.604;2023-05-13T18:51:31;101234.53;;;18.75;34.79
40794;BME280;26502;51.886;15.604;2023-05-13T18:56:37;101239.21;;;18.65;35.01
40794;BME280;26502;51.886;15.604;2023-05-13T19:01:45;101240.42;;;18.54;35.14
40794;BME280;26502;51.886;15.604;2023-05-13T19:06:52;101244.93;;;18.41;35.18
40794;BME280;26502;51.886;15.604;2023-05-13T19:11:58;101249.40;;;18.22;35.67
40794;BME280;26502;51.886;15.604;2023-05-13T19:17:04;101256.27;;;18.05;36.07
40794;BME280;26502;51.886;15.604;2023-05-13T19:22:10;101261.92;;;17.90;36.62
40794;BME280;26502;51.886;15.604;2023-05-13T19:27:17;101262.95;;;17.76;37.20
40794;BME280;26502;51.886;15.604;2023-05-13T19:32:23;101258.23;;;17.61;37.51
40794;BME280;26502;51.886;15.604;2023-05-13T19:37:29;101260.13;;;17.41;37.59
40794;BME280;26502;51.886;15.604;2023-05-13T19:42:35;101262.11;;;17.20;37.91
40794;BME280;26502;51.886;15.604;2023-05-13T19:47:42;101265.63;;;16.96;38.13
40794;BME280;26502;51.886;15.604;2023-05-13T19:52:49;101265.12;;;16.73;38.63
40794;BME280;26502;51.886;15.604;2023-05-13T19:57:56;101264.92;;;16.59;39.30
40794;BME280;26502;51.886;15.604;2023-05-13T20:03:02;101266.98;;;16.61;39.96
40794;BME280;26502;51.886;15.604;2023-05-13T20:08:09;101266.15;;;16.59;40.30
40794;BME280;26502;51.886;15.604;2023-05-13T20:13:17;101266.55;;;16.55;40.28
40794;BME280;26502;51.886;15.604;2023-05-13T20:18:23;101271.05;;;16.39;40.54
40794;BME280;26502;51.886;15.604;2023-05-13T20:23:30;101268.70;;;16.32;40.61
40794;BME280;26502;51.886;15.604;2023-05-13T20:28:36;101266.62;;;16.23;41.10
40794;BME280;26502;51.886;15.604;2023-05-13T20:33:42;101264.89;;;16.06;41.43
40794;BME280;26502;51.886;15.604;2023-05-13T20:38:48;101263.33;;;15.89;41.72
40794;BME280;26502;51.886;15.604;2023-05-13T20:43:55;101266.49;;;15.74;41.93
40794;BME280;26502;51.886;15.604;2023-05-13T20:49:01;101266.25;;;15.63;42.42
40794;BME280;26502;51.886;15.604;2023-05-13T20:54:08;101263.90;;;15.51;42.70
40794;BME280;26502;51.886;15.604;2023-05-13T20:59:14;101264.31;;;15.34;42.73
40794;BME280;26502;51.886;15.604;2023-05-13T21:04:21;101261.91;;;15.23;42.86
40794;BME280;26502;51.886;15.604;2023-05-13T21:09:29;101262.69;;;15.17;43.07
40794;BME280;26502;51.886;15.604;2023-05-13T21:14:35;101259.23;;;15.06;43.24
40794;BME280;26502;51.886;15.604;2023-05-13T21:19:41;101256.45;;;14.99;43.62
40794;BME280;26502;51.886;15.604;2023-05-13T21:24:47;101257.55;;;14.94;43.95
40794;BME280;26502;51.886;15.604;2023-05-13T21:29:54;101262.48;;;14.79;44.14
40794;BME280;26502;51.886;15.604;2023-05-13T21:35:00;101258.18;;;14.70;44.41
40794;BME280;26502;51.886;15.604;2023-05-13T21:40:09;101260.86;;;14.61;44.54
40794;BME280;26502;51.886;15.604;2023-05-13T21:45:16;101256.08;;;14.50;44.88
40794;BME280;26502;51.886;15.604;2023-05-13T21:50:22;101261.48;;;14.45;45.18
40794;BME280;26502;51.886;15.604;2023-05-13T21:55:28;101258.77;;;14.32;45.22
40794;BME280;26502;51.886;15.604;2023-05-13T22:00:38;101264.86;;;14.17;45.33
40794;BME280;26502;51.886;15.604;2023-05-13T22:05:44;101266.45;;;13.99;45.53
40794;BME280;26502;51.886;15.604;2023-05-13T22:10:50;101264.95;;;13.86;45.86
40794;BME280;26502;51.886;15.604;2023-05-13T22:15:56;101268.34;;;13.76;46.21
40794;BME280;26502;51.886;15.604;2023-05-13T22:21:02;101268.33;;;13.62;46.27
40794;BME280;26502;51.886;15.604;2023-05-13T22:26:09;101262.55;;;13.44;46.42
40794;BME280;26502;51.886;15.604;2023-05-13T22:31:15;101260.84;;;13.30;46.79
40794;BME280;26502;51.886;15.604;2023-05-13T22:36:21;101261.11;;;13.17;47.05
40794;BME280;26502;51.886;15.604;2023-05-13T22:41:27;101263.29;;;13.05;47.25
40794;BME280;26502;51.886;15.604;2023-05-13T22:46:33;101257.63;;;12.92;47.73
40794;BME280;26502;51.886;15.604;2023-05-13T22:51:40;101261.16;;;12.77;47.79
40794;BME280;26502;51.886;15.604;2023-05-13T22:56:46;101258.94;;;12.63;48.11
40794;BME280;26502;51.886;15.604;2023-05-13T23:01:52;101253.14;;;12.49;48.21
40794;BME280;26502;51.886;15.604;2023-05-13T23:06:58;101259.36;;;12.32;48.48
40794;BME280;26502;51.886;15.604;2023-05-13T23:12:07;101260.92;;;12.03;48.73
40794;BME280;26502;51.886;15.604;2023-05-13T23:17:13;101258.77;;;12.04;49.10
40794;BME280;26502;51.886;15.604;2023-05-13T23:22:19;101253.86;;;12.01;49.16
40794;BME280;26502;51.886;15.604;2023-05-13T23:27:26;101245.22;;;11.92;49.43
40794;BME280;26502;51.886;15.604;2023-05-13T23:32:35;101240.54;;;11.94;49.37
40794;BME280;26502;51.886;15.604;2023-05-13T23:37:41;101238.93;;;11.87;49.64
40794;BME280;26502;51.886;15.604;2023-05-13T23:42:47;101240.60;;;11.79;49.75
40794;BME280;26502;51.886;15.604;2023-05-13T23:47:53;101238.18;;;11.63;49.84
40794;BME280;26502;51.886;15.604;2023-05-13T23:53:00;101240.23;;;11.53;50.21
40794;BME280;26502;51.886;15.604;2023-05-13T23:58:06;101240.14;;;11.37;50.35
